BAW826 EGLL-EIDW
Flight info
| Callsign | BAW826 |
|---|---|
| Flight time | N/A |
| Altitude | 34000 |
| Route | CPT L9 DIDZA N14 BIBPE DCT OKTAD DCT MEDOG DCT KRAGY DCT PEMOB DCT LEMGU M17 VATRY |
| Aircraft | A21N/M-SDE3FGIJ1LRWXYZ/SB1G1 |
Departure
| Time | 2026-05-04 07:26 |
|---|---|
| Airport | London Heathrow Airport (EGLL) |
Arrival
| Time | N/A |
|---|---|
| Airport | Dublin Airport (EIDW) |
| Time | Latitude | Longitude | Altitude | Speed | Heading |
|---|---|---|---|---|---|
| 2026-05-04 07:08 | 51.46994 | -0.48608 | 91 ft | 0 kts | 270° |
| 2026-05-04 07:16 | 51.46994 | -0.48598 | 91 ft | 2 kts | 270° |
| 2026-05-04 07:17 | 51.46994 | -0.48574 | 91 ft | 2 kts | 270° |
| 2026-05-04 07:17 | 51.46994 | -0.48550 | 91 ft | 2 kts | 270° |
| 2026-05-04 07:17 | 51.46994 | -0.48535 | 91 ft | 2 kts | 270° |
| 2026-05-04 07:17 | 51.46996 | -0.48511 | 91 ft | 2 kts | 244° |
| 2026-05-04 07:18 | 51.47005 | -0.48491 | 91 ft | 2 kts | 225° |
| 2026-05-04 07:18 | 51.47017 | -0.48477 | 91 ft | 2 kts | 204° |
| 2026-05-04 07:18 | 51.47031 | -0.48470 | 91 ft | 1 kts | 184° |
| 2026-05-04 07:18 | 51.47037 | -0.48470 | 91 ft | 1 kts | 178° |
| 2026-05-04 07:19 | 51.47039 | -0.48470 | 91 ft | 0 kts | 179° |
| 2026-05-04 07:20 | 51.47037 | -0.48470 | 91 ft | 2 kts | 181° |
| 2026-05-04 07:20 | 51.46972 | -0.48471 | 91 ft | 15 kts | 180° |
| 2026-05-04 07:20 | 51.46837 | -0.48469 | 91 ft | 20 kts | 181° |
| 2026-05-04 07:20 | 51.46694 | -0.48467 | 91 ft | 19 kts | 171° |
| 2026-05-04 07:22 | 51.46659 | -0.46803 | 91 ft | 21 kts | 89° |
| 2026-05-04 07:22 | 51.46658 | -0.46573 | 91 ft | 20 kts | 90° |
| 2026-05-04 07:23 | 51.46659 | -0.46340 | 91 ft | 23 kts | 89° |
| 2026-05-04 07:23 | 51.46660 | -0.46038 | 91 ft | 27 kts | 91° |
| 2026-05-04 07:23 | 51.46662 | -0.45741 | 91 ft | 26 kts | 91° |
| 2026-05-04 07:23 | 51.46661 | -0.45461 | 91 ft | 24 kts | 90° |
| 2026-05-04 07:24 | 51.46663 | -0.45196 | 91 ft | 23 kts | 90° |
| 2026-05-04 07:24 | 51.46663 | -0.44945 | 91 ft | 22 kts | 90° |
| 2026-05-04 07:24 | 51.46664 | -0.44703 | 91 ft | 21 kts | 90° |
| 2026-05-04 07:24 | 51.46664 | -0.44472 | 91 ft | 20 kts | 90° |
| 2026-05-04 07:25 | 51.46666 | -0.44235 | 91 ft | 23 kts | 91° |
| 2026-05-04 07:26 | 51.46428 | -0.50251 | 1299 ft | 182 kts | 271° |
| 2026-05-04 07:27 | 51.46389 | -0.52261 | 2063 ft | 186 kts | 271° |
| 2026-05-04 07:27 | 51.46356 | -0.54412 | 2634 ft | 201 kts | 271° |
| 2026-05-04 07:27 | 51.46326 | -0.56712 | 3124 ft | 217 kts | 270° |
| 2026-05-04 07:27 | 51.46293 | -0.59210 | 3538 ft | 238 kts | 270° |
| 2026-05-04 07:28 | 51.46252 | -0.62021 | 4024 ft | 259 kts | 269° |
| 2026-05-04 07:28 | 51.46034 | -0.64915 | 4701 ft | 270 kts | 259° |
| 2026-05-04 07:28 | 51.45685 | -0.67942 | 5528 ft | 275 kts | 262° |
| 2026-05-04 07:28 | 51.45520 | -0.71014 | 6466 ft | 277 kts | 267° |
| 2026-05-04 07:29 | 51.45444 | -0.74092 | 7357 ft | 279 kts | 268° |
| 2026-05-04 07:29 | 51.45394 | -0.77183 | 8234 ft | 281 kts | 268° |
| 2026-05-04 07:29 | 51.45358 | -0.80297 | 9099 ft | 283 kts | 268° |
| 2026-05-04 07:29 | 51.45326 | -0.83461 | 9957 ft | 285 kts | 268° |
| 2026-05-04 07:30 | 51.45344 | -0.86637 | 10666 ft | 293 kts | 271° |
| 2026-05-04 07:30 | 51.45530 | -0.89961 | 11091 ft | 310 kts | 276° |
| 2026-05-04 07:30 | 51.45900 | -0.93488 | 11465 ft | 329 kts | 279° |
| 2026-05-04 07:30 | 51.46325 | -0.97164 | 11842 ft | 345 kts | 279° |
| 2026-05-04 07:31 | 51.46773 | -1.00996 | 12496 ft | 352 kts | 279° |
| 2026-05-04 07:31 | 51.47222 | -1.04879 | 13273 ft | 355 kts | 279° |
| 2026-05-04 07:33 | 51.54493 | -1.30144 | 18060 ft | 386 kts | 316° |
| 2026-05-04 07:33 | 51.56464 | -1.33060 | 18665 ft | 390 kts | 315° |
| 2026-05-04 07:33 | 51.58452 | -1.36043 | 19274 ft | 393 kts | 314° |
| 2026-05-04 07:33 | 51.60291 | -1.39289 | 19862 ft | 395 kts | 307° |
| 2026-05-04 07:34 | 51.61893 | -1.42938 | 20470 ft | 397 kts | 300° |
| 2026-05-04 07:34 | 51.63255 | -1.46814 | 21063 ft | 399 kts | 297° |
| 2026-05-04 07:34 | 51.64549 | -1.50738 | 21620 ft | 402 kts | 296° |
| 2026-05-04 07:34 | 51.65862 | -1.54751 | 22172 ft | 405 kts | 296° |
| 2026-05-04 07:35 | 51.67184 | -1.58767 | 22713 ft | 408 kts | 296° |
| 2026-05-04 07:35 | 51.68517 | -1.62802 | 23248 ft | 411 kts | 296° |
| 2026-05-04 07:35 | 51.69706 | -1.67026 | 23761 ft | 412 kts | 288° |
| 2026-05-04 07:35 | 51.70536 | -1.71478 | 24266 ft | 413 kts | 281° |
| 2026-05-04 07:36 | 51.71012 | -1.76079 | 24733 ft | 415 kts | 275° |
| 2026-05-04 07:36 | 51.71351 | -1.80691 | 25158 ft | 417 kts | 275° |
| 2026-05-04 07:38 | 51.75839 | -2.13594 | 27750 ft | 439 kts | 282° |
| 2026-05-04 07:38 | 51.76548 | -2.18413 | 28077 ft | 441 kts | 282° |
| 2026-05-04 07:38 | 51.77249 | -2.23195 | 28393 ft | 444 kts | 282° |
| 2026-05-04 07:38 | 51.77957 | -2.28053 | 28713 ft | 446 kts | 282° |
| 2026-05-04 07:39 | 51.78673 | -2.32970 | 29062 ft | 447 kts | 282° |
| 2026-05-04 07:39 | 51.79378 | -2.37839 | 29408 ft | 448 kts | 282° |
| 2026-05-04 07:39 | 51.80087 | -2.42763 | 29704 ft | 450 kts | 283° |
| 2026-05-04 07:39 | 51.80797 | -2.47704 | 29984 ft | 453 kts | 283° |
| 2026-05-04 07:40 | 51.81503 | -2.52618 | 30245 ft | 455 kts | 283° |
| 2026-05-04 07:40 | 51.82214 | -2.57633 | 30605 ft | 455 kts | 282° |
| 2026-05-04 07:40 | 51.82893 | -2.62592 | 30974 ft | 454 kts | 282° |
| 2026-05-04 07:40 | 51.83563 | -2.67556 | 31318 ft | 454 kts | 282° |
| 2026-05-04 07:41 | 51.84242 | -2.72628 | 31613 ft | 454 kts | 282° |
| 2026-05-04 07:41 | 51.84913 | -2.77640 | 31913 ft | 455 kts | 282° |
| 2026-05-04 07:41 | 51.85580 | -2.82619 | 32206 ft | 455 kts | 283° |
| 2026-05-04 07:41 | 51.86247 | -2.87596 | 32485 ft | 455 kts | 283° |
| 2026-05-04 07:42 | 51.86920 | -2.92637 | 32731 ft | 456 kts | 283° |
| 2026-05-04 07:42 | 51.87586 | -2.97639 | 32963 ft | 457 kts | 283° |
| 2026-05-04 07:42 | 51.88249 | -3.02636 | 33171 ft | 458 kts | 283° |
| 2026-05-04 07:42 | 51.88912 | -3.07647 | 33361 ft | 460 kts | 283° |
| 2026-05-04 07:43 | 51.89585 | -3.12770 | 33572 ft | 461 kts | 283° |
| 2026-05-04 07:43 | 51.90246 | -3.17801 | 33778 ft | 462 kts | 283° |
| 2026-05-04 07:43 | 51.90915 | -3.22927 | 33958 ft | 463 kts | 283° |
| 2026-05-04 07:43 | 51.91577 | -3.28021 | 33998 ft | 465 kts | 283° |
| 2026-05-04 07:44 | 51.92901 | -3.38247 | 33997 ft | 465 kts | 283° |
| 2026-05-04 07:44 | 51.94214 | -3.48492 | 33998 ft | 466 kts | 284° |
| 2026-05-04 07:45 | 51.95526 | -3.58776 | 34000 ft | 466 kts | 284° |
| 2026-05-04 07:45 | 51.96837 | -3.69123 | 33997 ft | 467 kts | 283° |
| 2026-05-04 07:46 | 51.98140 | -3.79483 | 33995 ft | 469 kts | 283° |
| 2026-05-04 07:46 | 51.99427 | -3.89812 | 33996 ft | 470 kts | 283° |
| 2026-05-04 07:47 | 52.00722 | -4.00277 | 34005 ft | 470 kts | 283° |
| 2026-05-04 07:49 | 52.05782 | -4.41991 | 33991 ft | 473 kts | 284° |
| 2026-05-04 07:49 | 52.07031 | -4.52496 | 34002 ft | 475 kts | 284° |
| 2026-05-04 07:50 | 52.08279 | -4.63068 | 34008 ft | 475 kts | 284° |
| 2026-05-04 07:50 | 52.09512 | -4.73606 | 34009 ft | 476 kts | 283° |
| 2026-05-04 07:51 | 52.10744 | -4.84221 | 34014 ft | 477 kts | 283° |
| 2026-05-04 07:51 | 52.11954 | -4.94765 | 34028 ft | 478 kts | 283° |
| 2026-05-04 07:52 | 52.13428 | -5.05208 | 34017 ft | 474 kts | 294° |
| 2026-05-04 07:52 | 52.16561 | -5.14449 | 34015 ft | 463 kts | 313° |
| 2026-05-04 07:54 | 52.37899 | -5.35430 | 27066 ft | 454 kts | 338° |
| 2026-05-04 07:55 | 52.40683 | -5.37724 | 26406 ft | 441 kts | 338° |
| 2026-05-04 07:55 | 52.43376 | -5.39959 | 25821 ft | 432 kts | 338° |
| 2026-05-04 07:55 | 52.46012 | -5.42152 | 25302 ft | 423 kts | 338° |
| 2026-05-04 07:55 | 52.48583 | -5.44287 | 24798 ft | 415 kts | 338° |
| 2026-05-04 07:56 | 52.51136 | -5.46409 | 24296 ft | 408 kts | 337° |
| 2026-05-04 07:56 | 52.53654 | -5.48433 | 23810 ft | 400 kts | 340° |
| 2026-05-04 07:56 | 52.56181 | -5.50193 | 23320 ft | 393 kts | 343° |
| 2026-05-04 07:56 | 52.58717 | -5.51680 | 22827 ft | 386 kts | 346° |
| 2026-05-04 07:57 | 52.61242 | -5.53000 | 22369 ft | 380 kts | 346° |
| 2026-05-04 07:57 | 52.63739 | -5.54271 | 21927 ft | 376 kts | 346° |
| 2026-05-04 07:57 | 52.66208 | -5.55529 | 21477 ft | 372 kts | 346° |
| 2026-05-04 07:57 | 52.68660 | -5.56786 | 21032 ft | 368 kts | 346° |
| 2026-05-04 07:58 | 52.71100 | -5.58038 | 20570 ft | 365 kts | 346° |
| 2026-05-04 07:58 | 52.73499 | -5.59272 | 20123 ft | 362 kts | 346° |
| 2026-05-04 07:58 | 52.75894 | -5.60506 | 19671 ft | 359 kts | 346° |
| 2026-05-04 07:58 | 52.78252 | -5.61723 | 19211 ft | 359 kts | 346° |
| 2026-05-04 07:59 | 52.80643 | -5.62958 | 18739 ft | 358 kts | 346° |
| 2026-05-04 07:59 | 52.83019 | -5.64186 | 18274 ft | 358 kts | 345° |
| 2026-05-04 07:59 | 52.85386 | -5.65414 | 17827 ft | 358 kts | 344° |
| 2026-05-04 07:59 | 52.87741 | -5.66636 | 17376 ft | 357 kts | 344° |
| 2026-05-04 08:00 | 52.90114 | -5.67870 | 16927 ft | 356 kts | 344° |
| 2026-05-04 08:00 | 52.92454 | -5.69088 | 16483 ft | 354 kts | 344° |
| 2026-05-04 08:00 | 52.94791 | -5.70306 | 16037 ft | 353 kts | 344° |
| 2026-05-04 08:02 | 53.10865 | -5.78724 | 12919 ft | 342 kts | 343° |
| 2026-05-04 08:02 | 53.13003 | -5.80554 | 12418 ft | 345 kts | 322° |
| 2026-05-04 08:02 | 53.14541 | -5.83594 | 11954 ft | 347 kts | 301° |
| 2026-05-04 08:03 | 53.15539 | -5.87249 | 11507 ft | 346 kts | 294° |
| 2026-05-04 08:03 | 53.16460 | -5.90906 | 11053 ft | 344 kts | 294° |
| 2026-05-04 08:03 | 53.17384 | -5.94559 | 10714 ft | 338 kts | 294° |
| 2026-05-04 08:03 | 53.18284 | -5.98090 | 10537 ft | 325 kts | 295° |
| 2026-05-04 08:04 | 53.19154 | -6.01477 | 10396 ft | 312 kts | 295° |
| 2026-05-04 08:04 | 53.19986 | -6.04705 | 10257 ft | 300 kts | 295° |
| 2026-05-04 08:04 | 53.20795 | -6.07839 | 10128 ft | 288 kts | 295° |
| 2026-05-04 08:04 | 53.21573 | -6.10854 | 9935 ft | 281 kts | 295° |
| 2026-05-04 08:05 | 53.22352 | -6.13870 | 9568 ft | 280 kts | 295° |
| 2026-05-04 08:05 | 53.23119 | -6.16844 | 9216 ft | 279 kts | 295° |
| 2026-05-04 08:05 | 53.23877 | -6.19789 | 8884 ft | 276 kts | 295° |
| 2026-05-04 08:05 | 53.24637 | -6.22739 | 8546 ft | 274 kts | 295° |
| 2026-05-04 08:06 | 53.25385 | -6.25645 | 8214 ft | 273 kts | 296° |
| 2026-05-04 08:06 | 53.26124 | -6.28527 | 7886 ft | 271 kts | 295° |
| 2026-05-04 08:06 | 53.26866 | -6.31424 | 7555 ft | 269 kts | 295° |
| 2026-05-04 08:06 | 53.27599 | -6.34292 | 7279 ft | 264 kts | 295° |
| 2026-05-04 08:08 | 53.32285 | -6.52685 | 7053 ft | 240 kts | 296° |
| 2026-05-04 08:08 | 53.32941 | -6.55273 | 7057 ft | 240 kts | 296° |
| 2026-05-04 08:10 | 53.40717 | -6.68956 | 4870 ft | 220 kts | 6° |
| 2026-05-04 08:11 | 53.42231 | -6.68701 | 4590 ft | 218 kts | 5° |